Time;durP1;ratioP1;P1;durP2;ratioP2;P2;SDS_P1;SDS_P2;PMS_P1;PMS_P2;Temp;Humidity;BMP_temperature;BMP_pressure;BME280_temperature;BME280_humidity;BME280_pressure;Samples;Min_cycle;Max_cycle;Signal;HPM_P1;HPM_P2
2023/08/27 00:00:17;;;;;;;7.55;3.67;;;;;;;14.58;100.00;100983.22;5287270;28;20023;-72
2023/08/27 00:02:48;;;;;;;8.38;3.70;;;;;;;14.61;100.00;100978.28;5273367;28;20032;-72
2023/08/27 00:05:18;;;;;;;14.70;4.07;;;;;;;14.65;100.00;100976.03;5286589;28;20031;-72
2023/08/27 00:07:49;;;;;;;8.90;3.65;;;;;;;14.69;100.00;100970.06;5280977;28;20016;-72
2023/08/27 00:10:19;;;;;;;6.72;3.40;;;;;;;14.70;100.00;100974.41;5269389;28;20028;-72
2023/08/27 00:12:50;;;;;;;8.80;3.60;;;;;;;14.72;100.00;100963.44;5286562;28;20023;-73
2023/08/27 00:15:21;;;;;;;5.90;3.65;;;;;;;14.70;100.00;100963.63;5286595;28;20027;-74
2023/08/27 00:17:51;;;;;;;6.75;3.35;;;;;;;14.64;100.00;100964.38;5284925;28;20058;-74
2023/08/27 00:20:22;;;;;;;4.88;3.28;;;;;;;14.58;100.00;100970.56;5286286;28;20030;-74
2023/08/27 00:22:52;;;;;;;6.95;3.60;;;;;;;14.55;100.00;100964.69;5286744;28;20023;-74
2023/08/27 00:25:23;;;;;;;7.03;4.00;;;;;;;14.52;100.00;100968.63;5281100;28;20462;-74
2023/08/27 00:27:53;;;;;;;8.07;4.50;;;;;;;14.53;100.00;100964.88;5264476;28;20032;-74
2023/08/27 00:30:24;;;;;;;7.93;5.18;;;;;;;14.58;100.00;100964.31;5285824;28;20072;-74
2023/08/27 00:32:54;;;;;;;7.50;4.60;;;;;;;14.61;100.00;100959.38;5285893;28;20024;-74
2023/08/27 00:35:25;;;;;;;12.55;5.75;;;;;;;14.64;100.00;100953.59;5286213;28;20475;-74
2023/08/27 00:37:55;;;;;;;8.48;5.50;;;;;;;14.67;100.00;100949.69;5285488;28;20015;-74
2023/08/27 00:40:28;;;;;;;9.90;5.15;;;;;;;14.70;100.00;100947.41;5286030;28;20035;-74
2023/08/27 00:42:59;;;;;;;9.60;4.32;;;;;;;14.67;100.00;100958.63;5286061;28;20477;-74
2023/08/27 00:45:29;;;;;;;7.28;4.95;;;;;;;14.64;100.00;100953.59;5285734;28;20031;-74
2023/08/27 00:48:00;;;;;;;9.95;4.85;;;;;;;14.68;100.00;100948.66;5284877;28;20455;-74
2023/08/27 00:50:31;;;;;;;10.55;5.05;;;;;;;14.69;100.00;100948.44;5286425;28;20419;-74
2023/08/27 00:53:02;;;;;;;9.23;5.10;;;;;;;14.72;100.00;100949.94;5265734;28;20016;-72
2023/08/27 00:55:34;;;;;;;11.02;5.72;;;;;;;14.74;100.00;100945.19;5278395;28;20076;-72
2023/08/27 00:58:05;;;;;;;12.23;5.80;;;;;;;14.77;100.00;100939.41;5271377;28;20032;-72
2023/08/27 01:00:36;;;;;;;13.57;6.43;;;;;;;14.81;100.00;100947.94;5285897;28;20039;-72
2023/08/27 01:03:06;;;;;;;13.27;5.68;;;;;;;14.85;100.00;100949.25;5276776;28;20031;-72
2023/08/27 01:05:37;;;;;;;9.13;4.78;;;;;;;14.82;100.00;100955.03;5281004;28;20384;-72
2023/08/27 01:08:31;;;;;;;14.55;5.22;;;;;;;14.82;100.00;100953.19;5285104;28;20024;-71
2023/08/27 01:11:10;;;;;;;;;;;;;;;14.84;100.00;100953.81;5275960;28;20024;-71
2023/08/27 01:14:01;;;;;;;9.25;5.10;;;;;;;14.87;100.00;100958.00;5281249;28;20415;-72
2023/08/27 01:16:35;;;;;;;12.77;6.43;;;;;;;14.92;100.00;100944.75;5284088;28;20267;-72
2023/08/27 01:19:14;;;;;;;17.77;6.00;;;;;;;14.91;100.00;100952.03;5285946;28;20388;-72
2023/08/27 01:21:44;;;;;;;15.13;5.90;;;;;;;14.95;100.00;100960.56;5285448;28;20088;-72
2023/08/27 01:24:15;;;;;;;13.25;6.40;;;;;;;14.93;100.00;100946.44;5284907;28;20027;-72
2023/08/27 01:26:48;;;;;;;12.27;6.10;;;;;;;14.93;100.00;100944.56;5283652;28;20403;-72
2023/08/27 01:29:26;;;;;;;10.25;5.90;;;;;;;14.93;100.00;100941.03;5285371;28;20079;-72
2023/08/27 01:32:13;;;;;;;12.20;6.28;;;;;;;14.93;100.00;100943.72;5285834;28;20031;-72
2023/08/27 01:34:44;;;;;;;12.82;5.82;;;;;;;14.90;100.00;100934.13;5285265;28;20035;-73
2023/08/27 01:37:15;;;;;;;16.70;5.78;;;;;;;14.92;100.00;100940.19;5284147;28;20027;-73
2023/08/27 01:39:46;;;;;;;16.63;6.45;;;;;;;14.93;100.00;100936.47;5266627;28;20487;-73
2023/08/27 01:42:16;;;;;;;14.63;5.57;;;;;;;14.96;100.00;100929.81;5285261;28;20027;-72
2023/08/27 01:44:46;;;;;;;12.85;5.82;;;;;;;14.98;100.00;100909.69;5285623;28;20582;-72
2023/08/27 01:47:17;;;;;;;15.98;6.68;;;;;;;15.00;100.00;100917.59;5284102;28;20028;-73
2023/08/27 01:49:49;;;;;;;12.10;6.07;;;;;;;14.99;100.00;100911.38;5285093;28;20019;-73
2023/08/27 01:52:19;;;;;;;12.63;6.03;;;;;;;14.99;100.00;100911.38;5284929;28;20039;-72
2023/08/27 01:54:50;;;;;;;10.98;5.65;;;;;;;15.00;100.00;100906.78;5285548;28;20537;-72
2023/08/27 01:57:20;;;;;;;10.80;5.60;;;;;;;15.02;100.00;100896.66;5283524;28;20023;-73
2023/08/27 01:59:51;;;;;;;15.65;5.72;;;;;;;15.02;100.00;100902.88;5275956;28;20019;-72
2023/08/27 02:02:22;;;;;;;13.93;5.63;;;;;;;15.02;100.00;100904.75;5280920;28;20114;-72
2023/08/27 02:04:53;;;;;;;12.75;5.70;;;;;;;15.01;100.00;100908.50;5285193;28;20440;-72
2023/08/27 02:07:23;;;;;;;11.55;5.78;;;;;;;15.00;100.00;100912.19;5282607;28;20065;-73
2023/08/27 02:09:54;;;;;;;17.17;6.00;;;;;;;14.99;100.00;100913.22;5273721;28;20024;-73
2023/08/27 02:12:25;;;;;;;11.85;5.35;;;;;;;14.99;100.00;100915.94;5285072;28;20023;-73
2023/08/27 02:14:55;;;;;;;16.40;5.80;;;;;;;14.98;100.00;100916.97;5284669;28;20030;-73
2023/08/27 02:17:26;;;;;;;11.57;5.90;;;;;;;15.00;100.00;100917.59;5283173;28;20035;-72
2023/08/27 02:19:57;;;;;;;12.63;6.70;;;;;;;15.02;100.00;100912.84;5284813;28;20041;-72
2023/08/27 02:22:28;;;;;;;15.98;7.57;;;;;;;15.03;100.00;100915.34;5287718;28;20023;-72
2023/08/27 02:25:05;;;;;;;13.75;5.97;;;;;;;15.06;100.00;100910.59;5275255;28;20031;-72
2023/08/27 02:27:35;;;;;;;13.60;6.07;;;;;;;15.01;100.00;100901.22;5287303;28;20099;-72
2023/08/27 02:30:07;;;;;;;15.40;5.72;;;;;;;15.06;100.00;100902.47;5288603;28;20477;-72
2023/08/27 02:32:37;;;;;;;16.08;6.43;;;;;;;15.03;100.00;100893.75;5289169;28;20533;-72
2023/08/27 02:35:08;;;;;;;14.95;6.10;;;;;;;15.03;100.00;100903.72;5288524;28;20075;-73
2023/08/27 02:37:38;;;;;;;13.13;5.07;;;;;;;15.05;100.00;100915.16;5287345;28;20488;-72
2023/08/27 02:40:09;;;;;;;12.70;5.53;;;;;;;15.03;100.00;100914.53;5288035;28;20028;-72
2023/08/27 02:42:40;;;;;;;10.38;4.97;;;;;;;15.03;100.00;100911.81;5288815;28;20567;-72
2023/08/27 02:45:10;;;;;;;12.18;5.50;;;;;;;15.02;100.00;100910.16;5288599;28;20023;-72
2023/08/27 02:47:41;;;;;;;10.23;5.22;;;;;;;15.02;100.00;100904.75;5287363;28;20084;-72
2023/08/27 02:50:11;;;;;;;12.27;5.93;;;;;;;15.01;100.00;100892.28;5288931;28;20045;-73
2023/08/27 02:52:42;;;;;;;17.88;6.80;;;;;;;15.01;100.00;100890.41;5288602;28;20023;-72
2023/08/27 02:55:13;;;;;;;12.82;5.93;;;;;;;15.01;100.00;100889.59;5288807;28;20074;-72
2023/08/27 02:57:43;;;;;;;12.75;6.45;;;;;;;14.97;100.00;100885.59;5287562;28;20015;-72
2023/08/27 03:00:15;;;;;;;19.65;7.20;;;;;;;14.95;100.00;100890.34;5276135;28;20023;-72
2023/08/27 03:02:45;;;;;;;12.65;7.07;;;;;;;14.93;100.00;100895.94;5287723;28;20066;-72
2023/08/27 03:05:17;;;;;;;13.55;5.93;;;;;;;14.90;100.00;100901.72;5288096;28;20027;-72
2023/08/27 03:07:48;;;;;;;15.43;7.28;;;;;;;14.90;100.00;100896.31;5282766;28;20388;-72
2023/08/27 03:10:19;;;;;;;19.10;7.20;;;;;;;14.90;100.00;100888.22;5281082;28;20026;-74
2023/08/27 03:12:49;;;;;;;19.92;7.53;;;;;;;14.93;100.00;100890.53;5288409;28;20030;-72
2023/08/27 03:15:20;;;;;;;17.52;8.15;;;;;;;14.92;100.00;100894.28;5287985;28;20034;-74
2023/08/27 03:17:50;;;;;;;17.25;7.40;;;;;;;14.91;100.00;100892.59;5287216;28;20028;-72
2023/08/27 03:20:21;;;;;;;17.23;7.07;;;;;;;14.91;100.00;100895.31;5288124;28;20020;-72
2023/08/27 03:22:52;;;;;;;19.10;7.70;;;;;;;14.91;100.00;100889.91;5287939;28;20049;-72
2023/08/27 03:25:22;;;;;;;17.05;6.88;;;;;;;14.90;100.00;100885.50;5287343;28;20050;-72
2023/08/27 03:27:53;;;;;;;18.45;7.72;;;;;;;14.89;100.00;100883.00;5285906;28;20024;-72
2023/08/27 03:30:24;;;;;;;21.30;7.85;;;;;;;14.89;100.00;100872.22;5287603;28;20030;-72
2023/08/27 03:32:54;;;;;;;17.13;7.07;;;;;;;14.86;100.00;100883.38;5286421;28;20110;-72
2023/08/27 03:35:25;;;;;;;17.67;6.55;;;;;;;14.82;100.00;100882.97;5287344;28;20023;-72
2023/08/27 03:37:55;;;;;;;19.05;6.80;;;;;;;14.79;100.00;100880.63;5286128;28;20421;-72
2023/08/27 03:40:26;;;;;;;13.75;6.32;;;;;;;14.73;100.00;100874.13;5287072;28;20553;-72
2023/08/27 03:42:57;;;;;;;15.80;6.40;;;;;;;14.75;100.00;100880.16;5273805;28;20054;-72
2023/08/27 03:45:28;;;;;;;14.77;6.38;;;;;;;14.72;100.00;100875.19;5287126;28;20525;-72
2023/08/27 03:47:59;;;;;;;13.02;6.60;;;;;;;14.68;100.00;100881.16;5286282;28;20043;-72
2023/08/27 03:50:29;;;;;;;17.05;6.57;;;;;;;14.63;100.00;100884.41;5276377;28;20115;-72
2023/08/27 03:53:00;;;;;;;19.40;7.03;;;;;;;14.61;100.00;100880.22;5266466;28;20026;-72
2023/08/27 03:55:33;;;;;;;16.33;7.20;;;;;;;14.61;100.00;100886.50;5286906;28;20030;-72
2023/08/27 03:58:03;;;;;;;23.17;7.13;;;;;;;14.64;100.00;100887.94;5277961;28;20077;-72
2023/08/27 04:00:34;;;;;;;19.10;6.85;;;;;;;14.64;100.00;100888.78;5281749;28;20020;-72
2023/08/27 04:03:05;;;;;;;14.18;6.78;;;;;;;14.65;100.00;100892.31;5287029;28;20023;-72
2023/08/27 04:05:37;;;;;;;15.43;6.78;;;;;;;14.65;100.00;100897.72;5289274;28;20042;-74
2023/08/27 04:08:08;;;;;;;14.38;6.57;;;;;;;14.61;100.00;100894.59;5286871;28;20088;-74
2023/08/27 04:10:38;;;;;;;17.52;6.78;;;;;;;14.62;100.00;100892.72;5284622;28;20039;-73
2023/08/27 04:13:09;;;;;;;17.50;7.75;;;;;;;14.57;100.00;100893.28;5268614;28;20496;-74
2023/08/27 04:15:39;;;;;;;16.65;6.25;;;;;;;14.56;100.00;100898.88;5285839;28;20028;-74
2023/08/27 04:18:10;;;;;;;15.68;6.57;;;;;;;14.50;100.00;100893.19;5272653;28;20028;-74
2023/08/27 04:20:40;;;;;;;12.85;5.75;;;;;;;14.48;100.00;100905.22;5279116;28;20031;-74
2023/08/27 04:23:11;;;;;;;14.00;6.13;;;;;;;14.44;100.00;100901.19;5279689;28;20496;-74
2023/08/27 04:26:03;;;;;;;13.82;6.03;;;;;;;14.41;100.00;100899.72;5286164;28;20027;-74
2023/08/27 04:28:33;;;;;;;15.60;6.00;;;;;;;14.40;100.00;100894.50;5285733;28;20522;-74
2023/08/27 04:31:04;;;;;;;13.90;5.68;;;;;;;14.39;100.00;100890.13;5286472;28;20031;-73
2023/08/27 04:33:34;;;;;;;17.52;6.30;;;;;;;14.37;100.00;100887.63;5286156;28;20115;-73
2023/08/27 04:36:05;;;;;;;19.98;6.30;;;;;;;14.34;100.00;100882.63;5284852;28;20045;-73
2023/08/27 04:38:36;;;;;;;19.60;6.47;;;;;;;14.35;100.00;100888.84;5253565;28;20024;-74
2023/08/27 04:41:06;;;;;;;14.32;6.03;;;;;;;14.33;100.00;100889.03;5285742;28;20035;-74
2023/08/27 04:43:37;;;;;;;14.80;5.93;;;;;;;14.35;100.00;100891.53;5286121;28;20115;-74
2023/08/27 04:46:07;;;;;;;17.30;5.53;;;;;;;14.35;100.00;100891.53;5284821;28;20023;-73
2023/08/27 04:48:39;;;;;;;14.82;6.20;;;;;;;14.34;100.00;100893.41;5275848;28;20024;-74
2023/08/27 04:51:10;;;;;;;18.35;6.50;;;;;;;14.35;100.00;100889.69;5281791;28;20076;-74
2023/08/27 04:53:40;;;;;;;14.68;5.63;;;;;;;14.36;100.00;100891.38;5286200;28;20469;-74
2023/08/27 04:56:11;;;;;;;21.75;6.15;;;;;;;14.36;100.00;100899.47;5284545;28;20313;-74
2023/08/27 04:58:41;;;;;;;13.90;6.68;;;;;;;14.39;100.00;100906.34;5285992;28;20466;-74
2023/08/27 05:01:12;;;;;;;10.32;5.80;;;;;;;14.41;100.00;100899.72;5285682;28;20028;-74
2023/08/27 05:03:42;;;;;;;13.82;5.88;;;;;;;14.43;100.00;100904.94;5285093;28;20066;-74
2023/08/27 05:06:13;;;;;;;13.15;6.32;;;;;;;14.48;100.00;100899.84;5281483;28;20540;-74
2023/08/27 05:08:43;;;;;;;14.15;7.10;;;;;;;14.48;100.00;100910.63;5283584;28;20043;-74
2023/08/27 05:11:15;;;;;;;12.77;7.35;;;;;;;14.52;100.00;100911.09;5285660;28;20027;-74
2023/08/27 05:13:45;;;;;;;19.48;6.15;;;;;;;14.55;100.00;100910.69;5285402;28;20151;-74
2023/08/27 05:16:16;;;;;;;12.82;6.70;;;;;;;14.56;100.00;100910.53;5281616;28;20056;-74
2023/08/27 05:18:47;;;;;;;12.90;6.70;;;;;;;14.57;100.00;100916.75;5275787;28;20115;-74
2023/08/27 05:21:17;;;;;;;14.02;6.47;;;;;;;14.60;100.00;100919.06;5293208;27;20139;-74
2023/08/27 05:23:48;;;;;;;17.90;6.53;;;;;;;14.64;100.00;100914.97;5279511;28;20032;-74
2023/08/27 05:26:18;;;;;;;11.68;6.10;;;;;;;14.70;100.00;100914.19;5283115;28;20031;-74
2023/08/27 05:28:49;;;;;;;14.75;6.45;;;;;;;14.72;100.00;100918.38;5279298;28;20431;-74
2023/08/27 05:31:19;;;;;;;14.85;6.75;;;;;;;14.76;100.00;100913.44;5275533;28;20077;-74
2023/08/27 05:33:50;;;;;;;15.40;6.90;;;;;;;14.83;100.00;100911.63;5265857;28;20019;-74
2023/08/27 05:36:21;;;;;;;15.65;6.85;;;;;;;14.80;100.00;100912.00;5262869;28;20020;-74
2023/08/27 05:38:51;;;;;;;13.00;6.57;;;;;;;14.89;100.00;100918.97;5284876;28;20028;-74
2023/08/27 05:41:22;;;;;;;19.98;6.72;;;;;;;14.93;100.00;100914.84;5281109;28;20028;-74
2023/08/27 05:43:52;;;;;;;14.02;6.15;;;;;;;14.98;100.00;100914.28;5275359;28;20022;-74
2023/08/27 05:46:23;;;;;;;16.13;6.10;;;;;;;15.00;100.00;100912.19;5265426;28;20024;-74
2023/08/27 05:48:53;;;;;;;18.85;6.03;;;;;;;15.02;100.00;100910.16;5263920;28;20012;-74
2023/08/27 05:51:23;;;;;;;13.52;5.97;;;;;;;15.02;100.00;100912.84;5283617;28;20036;-74
2023/08/27 05:53:55;;;;;;;15.35;7.05;;;;;;;15.24;100.00;100910.97;5284473;28;20296;-74
2023/08/27 05:56:27;;;;;;;11.75;6.30;;;;;;;15.70;100.00;100913.19;5278895;28;20030;-74
2023/08/27 05:58:58;;;;;;;12.50;5.60;;;;;;;16.19;100.00;100910.34;5272482;28;20036;-75
2023/08/27 06:01:28;;;;;;;9.10;5.00;;;;;;;16.64;100.00;100899.06;5291924;28;20024;-75
2023/08/27 06:03:59;;;;;;;8.73;4.20;;;;;;;16.71;100.00;100889.06;5288350;28;20024;-74
2023/08/27 06:06:29;;;;;;;9.68;3.70;;;;;;;17.12;100.00;100891.66;5290210;27;20510;-75
2023/08/27 06:09:00;;;;;;;11.65;4.53;;;;;;;17.27;100.00;100892.28;5289341;28;20044;-75
2023/08/27 06:11:30;;;;;;;13.60;4.00;;;;;;;17.53;100.00;100890.59;5279836;28;20088;-72
2023/08/27 06:14:01;;;;;;;6.78;3.72;;;;;;;17.72;100.00;100884.31;5278549;28;20131;-73
2023/08/27 06:16:32;;;;;;;10.77;3.30;;;;;;;17.73;100.00;100882.44;5287170;28;20031;-72
2023/08/27 06:19:03;;;;;;;6.85;3.30;;;;;;;17.86;100.00;100887.81;5289234;28;20358;-72
2023/08/27 06:21:33;;;;;;;6.38;3.50;;;;;;;18.04;100.00;100879.00;5289818;28;20039;-72
2023/08/27 06:24:04;;;;;;;8.82;3.72;;;;;;;18.31;100.00;100882.44;5289416;28;20038;-72
2023/08/27 06:26:34;;;;;;;7.70;3.10;;;;;;;18.65;100.00;100892.06;5274085;28;20056;-73
2023/08/27 06:29:05;;;;;;;8.52;3.55;;;;;;;18.89;100.00;100887.78;5287253;28;20331;-71
2023/08/27 06:31:36;;;;;;;7.38;3.00;;;;;;;19.11;100.00;100883.63;5285082;28;20023;-72
2023/08/27 06:34:06;;;;;;;7.43;2.97;;;;;;;19.35;100.00;100881.97;5288723;28;20080;-72
2023/08/27 06:36:37;;;;;;;9.00;3.40;;;;;;;19.26;100.00;100886.00;5268406;28;20187;-72
2023/08/27 06:39:08;;;;;;;12.43;3.30;;;;;;;19.27;100.00;100882.22;5281337;28;20032;-72
2023/08/27 06:41:38;;;;;;;6.18;3.25;;;;;;;19.29;100.00;100885.56;5288606;28;20058;-72
2023/08/27 06:44:09;;;;;;;8.57;3.10;;;;;;;19.30;100.00;100879.06;5270320;28;20076;-71
2023/08/27 06:46:39;;;;;;;9.00;2.80;;;;;;;19.20;100.00;100881.47;5274794;28;20545;-73
2023/08/27 06:49:10;;;;;;;9.73;3.33;;;;;;;19.07;100.00;100887.81;5289131;28;20031;-72
2023/08/27 06:51:40;;;;;;;12.65;2.85;;;;;;;19.92;100.00;100884.53;5289541;28;20046;-72
2023/08/27 06:54:11;;;;;;;8.20;2.90;;;;;;;19.91;100.00;100888.31;5288869;28;20038;-72
2023/08/27 06:56:41;;;;;;;12.27;3.22;;;;;;;19.96;100.00;100888.47;5288100;28;20547;-72
2023/08/27 06:59:12;;;;;;;8.48;3.20;;;;;;;19.59;100.00;100895.75;5288659;28;20022;-72
2023/08/27 07:01:42;;;;;;;7.05;2.92;;;;;;;19.91;100.00;100904.66;5289375;28;20015;-72
2023/08/27 07:04:13;;;;;;;6.50;3.08;;;;;;;20.03;100.00;100908.31;5286837;27;20081;-74
2023/08/27 07:06:43;;;;;;;6.55;2.63;;;;;;;19.91;100.00;100897.31;5280699;28;20476;-74
2023/08/27 07:09:14;;;;;;;6.68;2.58;;;;;;;20.14;100.00;100907.53;5273097;28;20059;-74
2023/08/27 07:11:44;;;;;;;7.60;2.95;;;;;;;20.25;100.00;100905.94;5280159;28;20027;-74
2023/08/27 07:14:15;;;;;;;7.90;2.45;;;;;;;20.26;100.00;100906.78;5274928;28;20463;-74
2023/08/27 07:16:46;;;;;;;6.22;2.53;;;;;;;20.55;100.00;100910.63;5270606;28;20032;-74
2023/08/27 07:19:16;;;;;;;12.85;3.05;;;;;;;20.57;100.00;100900.31;5275432;28;20371;-74
2023/08/27 07:21:46;;;;;;;4.95;2.55;;;;;;;20.41;100.00;100905.31;5287476;28;20029;-74
2023/08/27 07:24:17;;;;;;;9.02;2.80;;;;;;;20.47;100.00;100900.84;5287140;28;20020;-74
2023/08/27 07:26:48;;;;;;;6.18;2.50;;;;;;;20.66;100.00;100897.03;5286159;28;20124;-74
2023/08/27 07:29:18;;;;;;;5.53;2.65;;;;;;;20.71;100.00;100888.16;5287493;28;20035;-74
2023/08/27 07:31:49;;;;;;;12.27;2.92;;;;;;;20.94;100.00;100896.41;5287268;28;20039;-74
2023/08/27 07:34:19;;;;;;;11.48;2.42;;;;;;;20.86;100.00;100891.28;5287109;28;20106;-74
2023/08/27 07:36:50;;;;;;;6.25;2.45;;;;;;;21.07;100.00;100902.72;5285799;28;20023;-74
2023/08/27 07:39:20;;;;;;;6.30;2.58;;;;;;;21.19;100.00;100889.94;5283543;28;20020;-74
2023/08/27 07:41:51;;;;;;;7.38;2.42;;;;;;;21.19;100.00;100896.22;5286907;28;20600;-74
2023/08/27 07:44:21;;;;;;;8.73;2.28;;;;;;;20.85;100.00;100895.09;5287114;28;20063;-72
2023/08/27 07:46:52;;;;;;;6.95;2.30;;;;;;;21.12;100.00;100889.19;5286016;28;20035;-72
2023/08/27 07:49:22;;;;;;;8.98;2.45;;;;;;;21.18;100.00;100888.25;5273316;28;20051;-72
2023/08/27 07:51:53;;;;;;;7.32;2.42;;;;;;;21.16;100.00;100885.78;5287455;28;20278;-72
2023/08/27 07:54:24;;;;;;;10.75;2.70;;;;;;;21.07;100.00;100880.91;5282862;28;20031;-72
2023/08/27 07:56:54;;;;;;;7.97;2.22;;;;;;;21.57;100.00;100875.03;5275539;28;20489;-72
2023/08/27 07:59:25;;;;;;;6.80;2.30;;;;;;;21.62;100.00;100883.31;5286719;28;20015;-73
2023/08/27 08:01:55;;;;;;;7.18;2.08;;;;;;;21.71;100.00;100888.19;5287263;28;20400;-72
2023/08/27 08:04:26;;;;;;;8.57;2.20;;;;;;;21.84;100.00;100887.13;5283414;28;20016;-72
2023/08/27 08:06:56;;;;;;;7.35;2.00;;;;;;;21.66;100.00;100884.53;5285016;28;20578;-72
2023/08/27 08:09:27;;;;;;;7.15;2.08;;;;;;;21.33;100.00;100880.47;5275046;28;20081;-72
2023/08/27 08:11:57;;;;;;;6.78;2.00;;;;;;;21.95;100.00;100883.53;5286668;28;20031;-72
2023/08/27 08:14:28;;;;;;;16.02;3.03;;;;;;;21.57;100.00;100881.31;5286827;28;20370;-73
2023/08/27 08:16:58;;;;;;;5.90;2.30;;;;;;;21.05;100.00;100886.59;5284710;28;20024;-72
2023/08/27 08:19:29;;;;;;;8.35;1.58;;;;;;;21.16;100.00;100883.03;5285431;28;20020;-72
2023/08/27 08:21:59;;;;;;;9.07;1.80;;;;;;;20.98;100.00;100885.84;5286342;28;20035;-72
2023/08/27 08:24:30;;;;;;;5.82;2.10;;;;;;;21.14;100.00;100898.00;5273864;28;20026;-73
2023/08/27 08:27:02;;;;;;;8.55;2.10;;;;;;;21.18;100.00;100899.16;5276179;28;20477;-72
2023/08/27 08:29:33;;;;;;;7.63;2.10;;;;;;;21.67;100.00;100902.56;5285533;28;20052;-72
2023/08/27 08:32:04;;;;;;;4.45;1.58;;;;;;;21.96;100.00;100909.78;5284312;28;20012;-72
2023/08/27 08:34:34;;;;;;;7.47;2.15;;;;;;;21.89;100.00;100910.97;5284718;28;20115;-72
2023/08/27 08:37:05;;;;;;;7.90;1.60;;;;;;;21.05;100.00;100910.31;5287021;27;20395;-72
2023/08/27 08:39:36;;;;;;;9.48;1.73;;;;;;;21.16;100.00;100907.59;5284855;28;20027;-72
2023/08/27 08:42:36;;;;;;;9.75;2.13;;;;;;;21.45;100.00;100905.88;5285469;28;20016;-73
2023/08/27 08:45:13;;;;;;;11.52;1.60;;;;;;;21.05;100.00;100910.31;5266804;28;20556;-72
2023/08/27 08:47:44;;;;;;;9.40;1.80;;;;;;;20.73;100.00;100901.53;5284158;28;20031;-72
2023/08/27 08:50:16;;;;;;;7.93;1.40;;;;;;;21.11;100.00;100903.91;5285147;28;20536;-72
2023/08/27 08:52:49;;;;;;;6.47;1.83;;;;;;;21.38;100.00;100905.16;5284405;28;20126;-72
2023/08/27 08:55:22;;;;;;;10.80;1.58;;;;;;;21.67;100.00;100900.66;5266828;28;20496;-72
2023/08/27 08:57:58;;;;;;;3.75;1.10;;;;;;;21.41;100.00;100901.13;5278704;28;20016;-72
2023/08/27 09:00:29;;;;;;;7.15;1.60;;;;;;;20.92;100.00;100901.25;5284775;28;20059;-71
2023/08/27 09:03:02;;;;;;;7.80;1.63;;;;;;;21.06;100.00;100907.34;5284507;28;20560;-71
2023/08/27 09:05:34;;;;;;;6.88;1.50;;;;;;;21.01;100.00;100906.38;5291480;27;20023;-71
2023/08/27 09:08:08;;;;;;;5.13;1.40;;;;;;;21.31;100.00;100904.44;5283603;28;20019;-72
2023/08/27 09:10:39;;;;;;;5.22;1.77;;;;;;;21.43;100.00;100899.00;5275850;27;20031;-72
2023/08/27 09:13:10;;;;;;;4.60;1.40;;;;;;;21.83;100.00;100904.56;5284434;28;20061;-72
2023/08/27 09:15:41;;;;;;;4.82;1.20;;;;;;;21.62;100.00;100891.53;5280738;28;20039;-72
2023/08/27 09:18:11;;;;;;;6.68;1.65;;;;;;;21.87;100.00;100891.25;5284262;28;20028;-72
2023/08/27 09:20:43;;;;;;;4.68;1.20;;;;;;;22.25;100.00;100884.44;5284187;28;20020;-72
2023/08/27 09:23:14;;;;;;;4.38;1.23;;;;;;;22.84;100.00;100882.25;5284021;28;20455;-72
2023/08/27 09:25:45;;;;;;;1.52;0.90;;;;;;;22.84;100.00;100872.19;5283474;28;20038;-72
2023/08/27 09:28:17;;;;;;;3.90;1.30;;;;;;;23.34;100.00;100878.75;5283464;28;20362;-72
2023/08/27 09:30:48;;;;;;;5.57;1.45;;;;;;;23.67;100.00;100875.16;5283458;28;20032;-72
2023/08/27 09:33:18;;;;;;;5.63;1.40;;;;;;;23.71;100.00;100863.47;5283534;28;20504;-72
2023/08/27 09:35:49;;;;;;;3.17;1.00;;;;;;;23.36;100.00;100863.75;5283050;28;20022;-72
2023/08/27 09:38:20;;;;;;;4.03;1.27;;;;;;;22.97;100.00;100852.72;5283495;28;20023;-73
2023/08/27 09:40:51;;;;;;;1.98;1.00;;;;;;;22.84;100.00;100850.28;5283403;28;20034;-72
2023/08/27 09:43:26;;;;;;;3.70;1.08;;;;;;;23.25;100.00;100849.06;5284137;28;20031;-72
2023/08/27 09:45:57;;;;;;;3.90;1.13;;;;;;;23.51;100.00;100852.19;5281327;28;20055;-72
2023/08/27 09:48:28;;;;;;;4.53;1.20;;;;;;;23.39;100.00;100857.75;5278493;28;20083;-72
2023/08/27 09:51:17;;;;;;;4.32;1.17;;;;;;;22.79;100.00;100852.09;5283317;28;20020;-72
2023/08/27 09:53:48;;;;;;;2.90;1.38;;;;;;;22.17;100.00;100852.84;5283566;28;20084;-72
2023/08/27 09:56:23;;;;;;;4.30;1.42;;;;;;;21.57;100.00;100845.00;5283082;28;20031;-72
2023/08/27 09:58:55;;;;;;;4.10;1.05;;;;;;;21.44;100.00;100854.28;5283173;28;20095;-72
2023/08/27 10:01:34;;;;;;;3.15;1.17;;;;;;;21.17;100.00;100854.69;5281567;28;20027;-72
2023/08/27 10:04:07;;;;;;;3.45;1.00;;;;;;;20.95;100.00;100853.63;5285144;28;20023;-72
2023/08/27 10:06:38;;;;;;;3.45;1.30;;;;;;;20.92;100.00;100856.78;5282275;28;20477;-72
2023/08/27 10:09:09;;;;;;;2.70;1.05;;;;;;;20.95;100.00;100857.16;5274845;28;20035;-72
2023/08/27 10:11:43;;;;;;;5.53;1.23;;;;;;;21.38;100.00;100855.22;5281414;28;20062;-74
2023/08/27 10:14:16;;;;;;;7.47;1.30;;;;;;;21.69;100.00;100854.84;5257532;28;20051;-75
2023/08/27 10:16:47;;;;;;;5.70;1.40;;;;;;;22.24;100.00;100853.56;5281547;28;20384;-74
2023/08/27 10:19:18;;;;;;;1.90;0.85;;;;;;;22.09;100.00;100848.59;5281975;28;20020;-74
2023/08/27 10:21:49;;;;;;;2.92;1.08;;;;;;;22.48;100.00;100846.91;5258028;28;20600;-75
2023/08/27 10:24:20;;;;;;;5.88;1.05;;;;;;;22.66;100.00;100856.81;5284065;28;20032;-75
2023/08/27 10:26:51;;;;;;;4.63;0.90;;;;;;;22.44;100.00;100853.94;5265347;28;20031;-75
2023/08/27 10:29:23;;;;;;;3.00;1.30;;;;;;;22.78;100.00;100847.69;5288746;28;20054;-74
2023/08/27 10:31:55;;;;;;;4.53;0.90;;;;;;;22.97;100.00;100860.91;5282996;28;20031;-75
2023/08/27 10:34:28;;;;;;;4.35;1.10;;;;;;;22.46;100.00;100849.06;5274896;28;20023;-74
2023/08/27 10:37:04;;;;;;;3.25;1.00;;;;;;;22.31;100.00;100861.59;5282042;28;20020;-74
2023/08/27 10:39:37;;;;;;;4.68;1.50;;;;;;;22.03;100.00;100867.81;5283617;28;20223;-75
2023/08/27 10:42:07;;;;;;;5.07;1.30;;;;;;;21.81;100.00;100876.66;5278452;28;20182;-73
2023/08/27 10:44:38;;;;;;;2.45;1.33;;;;;;;21.59;100.00;100872.91;5288393;28;20019;-74
2023/08/27 10:47:27;;;;;;;7.72;1.30;;;;;;;21.52;100.00;100885.81;5261009;28;20054;-74
2023/08/27 10:49:58;;;;;;;3.60;1.20;;;;;;;21.31;100.00;100870.88;5267427;28;20076;-73
2023/08/27 10:52:29;;;;;;;3.13;1.27;;;;;;;21.15;100.00;100870.47;5287948;28;20034;-75
2023/08/27 10:55:00;;;;;;;2.22;0.95;;;;;;;20.85;100.00;100878.72;5263343;28;20480;-74
2023/08/27 10:57:36;;;;;;;2.00;1.20;;;;;;;20.68;100.00;100872.25;5285494;28;20084;-73
2023/08/27 11:00:10;;;;;;;3.22;1.38;;;;;;;20.64;100.00;100879.25;5286618;28;20157;-74
2023/08/27 11:03:13;;;;;;;2.13;1.40;;;;;;;20.73;100.00;100886.03;5287072;28;20423;-74
2023/08/27 11:05:43;;;;;;;2.28;1.30;;;;;;;21.17;100.00;100889.31;5286129;27;20501;-74
2023/08/27 11:08:16;;;;;;;4.60;1.48;;;;;;;21.54;100.00;100881.81;5290982;27;20085;-74
2023/08/27 11:10:46;;;;;;;9.18;1.58;;;;;;;21.78;100.00;100884.50;5274085;27;20031;-74
2023/08/27 11:13:37;;;;;;;3.53;1.10;;;;;;;21.68;100.00;100876.91;5286927;28;20023;-73
2023/08/27 11:16:28;;;;;;;5.25;1.17;;;;;;;21.77;100.00;100878.22;5285974;28;20035;-74
2023/08/27 11:18:59;;;;;;;3.22;0.95;;;;;;;21.58;100.00;100877.50;5298242;27;20131;-74
2023/08/27 11:21:29;;;;;;;6.55;1.27;;;;;;;21.35;100.00;100872.06;5286109;28;20106;-74
2023/08/27 11:24:10;;;;;;;1.15;0.98;;;;;;;21.17;100.00;100878.41;5288492;27;20481;-74
2023/08/27 11:26:42;;;;;;;2.75;1.05;;;;;;;21.10;100.00;100878.53;5281662;28;20067;-74
2023/08/27 11:29:12;;;;;;;7.47;1.40;;;;;;;21.18;100.00;100880.06;5287126;27;20026;-74
2023/08/27 11:31:45;;;;;;;4.57;1.00;;;;;;;20.83;100.00;100874.56;5297180;27;20098;-74
2023/08/27 11:34:15;;;;;;;7.75;1.17;;;;;;;20.78;100.00;100886.16;5286824;28;20027;-73